Time;durP1;ratioP1;P1;durP2;ratioP2;P2;SDS_P1;SDS_P2;PMS_P1;PMS_P2;Temp;Humidity;BMP_temperature;BMP_pressure;BME280_temperature;BME280_humidity;BME280_pressure;Samples;Min_cycle;Max_cycle;Signal;HPM_P1;HPM_P2
2022/11/04 00:01:55;;;;;;;13.40;10.23;;;11.80;99.90;;;;;;5071191;28;20182;-94
2022/11/04 00:04:26;;;;;;;15.83;10.37;;;11.70;99.90;;;;;;5084985;28;20174;-95
2022/11/04 00:10:01;;;;;;;14.77;10.37;;;11.80;99.90;;;;;;5120085;28;20224;-95
2022/11/04 00:12:30;;;;;;;12.60;10.20;;;11.70;99.90;;;;;;5164348;22;20232;-95
2022/11/04 00:17:18;;;;;;;11.90;10.13;;;11.70;99.90;;;;;;5101134;28;20216;-96
2022/11/04 00:17:50;;;;;;;16.17;10.87;;;11.60;99.90;;;;;;5082370;22;20223;-95
2022/11/04 00:28:57;;;;;;;13.27;10.40;;;11.80;99.90;;;;;;5046082;28;20186;-96
2022/11/04 00:34:10;;;;;;;14.30;10.43;;;11.90;99.90;;;;;;5060476;28;20201;-96
2022/11/04 00:36:39;;;;;;;15.43;10.73;;;11.90;99.90;;;;;;5067082;28;20201;-96
2022/11/04 00:39:22;;;;;;;12.70;10.23;;;11.80;99.90;;;;;;5050152;28;20219;-96
2022/11/04 00:41:49;;;;;;;13.43;10.10;;;11.90;99.90;;;;;;5076808;28;20171;-95
2022/11/04 00:44:18;;;;;;;12.63;10.17;;;11.80;99.90;;;;;;5072057;28;20198;-95
2022/11/04 00:46:49;;;;;;;12.60;10.57;;;11.80;99.90;;;;;;5072251;28;20188;-95
2022/11/04 00:49:14;;;;;;;14.63;10.43;;;11.80;99.90;;;;;;5077055;28;20175;-93
2022/11/04 00:51:43;;;;;;;14.77;11.33;;;11.80;99.90;;;;;;5077057;28;20215;-95
2022/11/04 00:54:18;;;;;;;16.53;11.60;;;11.80;99.90;;;;;;5060659;28;20204;-95
2022/11/04 00:56:47;;;;;;;15.37;10.70;;;11.90;99.90;;;;;;5060835;28;20177;-95
2022/11/04 00:59:15;;;;;;;13.43;10.20;;;11.90;99.90;;;;;;5073750;28;20184;-96
2022/11/04 01:01:41;;;;;;;15.20;10.20;;;11.80;99.90;;;;;;5068096;28;20191;-95
2022/11/04 01:04:08;;;;;;;14.17;10.50;;;11.90;99.90;;;;;;5069067;28;20201;-95
2022/11/04 01:07:02;;;;;;;12.80;10.30;;;11.90;99.90;;;;;;5052555;28;20192;-96
2022/11/04 01:09:31;;;;;;;15.53;10.57;;;11.90;99.90;;;;;;5092945;22;21382;-95
2022/11/04 01:12:00;;;;;;;18.03;11.13;;;11.80;99.90;;;;;;5095416;28;20251;-95
2022/11/04 01:14:28;;;;;;;12.80;10.43;;;11.80;99.90;;;;;;5091682;28;20283;-95
2022/11/04 01:17:00;;;;;;;14.70;10.80;;;11.80;99.90;;;;;;5098018;28;20181;-94
2022/11/04 01:19:27;;;;;;;15.67;10.57;;;11.80;99.90;;;;;;5114838;28;20212;-95
2022/11/04 01:21:59;;;;;;;13.73;10.47;;;11.90;99.90;;;;;;5099001;28;20167;-95
2022/11/04 01:24:28;;;;;;;13.73;10.87;;;11.90;99.90;;;;;;5099010;28;20190;-96
2022/11/04 01:26:58;;;;;;;13.63;10.77;;;11.90;99.90;;;;;;5102132;22;20219;-95
2022/11/04 01:29:32;;;;;;;16.63;11.07;;;11.90;99.90;;;;;;5082514;28;20183;-96
2022/11/04 01:32:04;;;;;;;15.33;11.80;;;11.90;99.90;;;;;;5083119;28;20532;-95
2022/11/04 01:34:31;;;;;;;16.80;11.30;;;11.90;99.90;;;;;;5081504;28;20203;-95
2022/11/04 01:36:59;;;;;;;14.10;11.17;;;12.10;99.90;;;;;;5083318;28;20179;-95
2022/11/04 01:39:32;;;;;;;13.80;10.77;;;11.90;99.90;;;;;;5070125;28;20182;-95
2022/11/04 01:42:03;;;;;;;15.20;10.97;;;11.90;99.90;;;;;;5071266;28;20170;-96
2022/11/04 01:44:46;;;;;;;13.60;11.03;;;12.00;99.90;;;;;;5087880;28;20205;-95
2022/11/04 01:47:44;;;;;;;14.93;11.17;;;12.00;99.90;;;;;;5096340;28;20259;-95
2022/11/04 01:50:20;;;;;;;14.50;10.87;;;12.00;99.90;;;;;;5087994;28;20202;-95
2022/11/04 01:53:42;;;;;;;14.33;10.77;;;11.90;99.90;;;;;;5155713;22;20242;-96
2022/11/04 01:56:11;;;;;;;13.83;11.10;;;11.90;99.90;;;;;;5101992;28;20169;-93
2022/11/04 02:03:05;;;;;;;13.50;11.50;;;12.00;99.90;;;;;;5110732;28;20188;-95
2022/11/04 02:05:32;;;;;;;13.47;10.63;;;12.00;99.90;;;;;;5115135;28;20187;-95
2022/11/04 02:08:16;;;;;;;;;;;;;;;;;;;;;
2022/11/04 02:14:16;;;;;;;14.93;11.27;;;12.00;99.90;;;;;;5100548;28;20175;-96
2022/11/04 02:17:12;;;;;;;12.20;10.03;;;11.90;99.90;;;;;;5083374;28;20155;-95
2022/11/04 02:19:48;;;;;;;12.27;10.93;;;12.00;99.90;;;;;;5112325;22;20227;-96
2022/11/04 02:22:20;;;;;;;13.70;11.20;;;12.00;99.90;;;;;;5067559;28;20630;-95
2022/11/04 02:25:21;;;;;;;14.63;10.93;;;12.00;99.90;;;;;;5093170;28;20165;-96
2022/11/04 02:28:30;;;;;;;12.77;10.40;;;12.00;99.90;;;;;;5092050;28;20189;-96
2022/11/04 02:31:29;;;;;;;16.20;10.73;;;12.10;99.90;;;;;;5080772;28;20280;-95
2022/11/04 02:34:38;;;;;;;13.40;10.87;;;12.10;99.90;;;;;;5079242;28;20170;-94
2022/11/04 02:38:12;;;;;;;14.53;10.57;;;12.10;99.90;;;;;;5098433;28;20223;-95
2022/11/04 02:41:18;;;;;;;12.97;10.50;;;12.10;99.90;;;;;;5154047;22;20221;-95
2022/11/04 02:47:29;;;;;;;14.87;11.47;;;12.10;99.90;;;;;;5120537;22;20239;-95
2022/11/04 02:50:32;;;;;;;14.73;10.80;;;12.10;99.90;;;;;;5065492;28;20217;-96
2022/11/04 02:53:19;;;;;;;14.00;10.77;;;12.20;99.90;;;;;;5066157;28;20173;-95
2022/11/04 02:55:53;;;;;;;14.17;10.60;;;12.30;99.90;;;;;;5063385;28;20619;-96
2022/11/04 02:58:29;;;;;;;14.77;11.03;;;12.20;99.90;;;;;;5062727;28;20707;-96
2022/11/04 03:01:11;;;;;;;13.93;11.33;;;12.20;99.90;;;;;;5076114;22;20275;-95
2022/11/04 03:03:45;;;;;;;14.23;11.57;;;12.20;99.90;;;;;;5085199;28;20186;-96
2022/11/04 03:06:21;;;;;;;14.13;10.77;;;12.30;99.90;;;;;;5081179;28;20189;-95
2022/11/04 03:09:01;;;;;;;14.20;11.40;;;12.30;99.90;;;;;;5113931;28;20161;-96
2022/11/04 03:11:32;;;;;;;17.60;11.13;;;12.30;99.90;;;;;;5061420;28;20224;-95
2022/11/04 03:14:04;;;;;;;12.83;11.00;;;12.20;99.90;;;;;;5097476;28;20165;-96
2022/11/04 03:16:49;;;;;;;15.27;11.67;;;12.20;99.90;;;;;;5116488;28;20182;-96
2022/11/04 03:19:31;;;;;;;16.10;12.00;;;12.20;99.90;;;;;;5094420;28;20183;-95
2022/11/04 03:22:40;;;;;;;14.47;11.53;;;12.20;99.90;;;;;;5081755;28;20185;-95
2022/11/04 03:25:11;;;;;;;14.83;11.10;;;12.20;99.90;;;;;;5046923;28;20193;-96
2022/11/04 03:28:15;;;;;;;14.17;11.00;;;12.10;99.90;;;;;;5075402;28;20191;-96
2022/11/04 03:30:58;;;;;;;17.77;11.13;;;12.20;99.90;;;;;;5080908;28;20236;-96
2022/11/04 03:33:49;;;;;;;16.47;11.63;;;12.30;99.90;;;;;;5109964;22;20188;-95
2022/11/04 03:36:18;;;;;;;15.33;12.37;;;12.30;99.90;;;;;;5078357;28;20182;-96
2022/11/04 03:38:47;;;;;;;16.53;13.07;;;12.40;99.90;;;;;;5096107;28;20185;-96
2022/11/04 03:41:26;;;;;;;19.83;12.30;;;12.20;99.90;;;;;;5057036;28;20186;-96
2022/11/04 03:43:59;;;;;;;17.17;12.33;;;12.30;99.90;;;;;;5082934;28;20190;-95
2022/11/04 03:46:29;;;;;;;15.37;11.73;;;12.20;99.90;;;;;;5082333;28;20235;-95
2022/11/04 03:49:04;;;;;;;13.33;11.30;;;12.30;99.90;;;;;;5067231;28;20171;-96
2022/11/04 03:51:35;;;;;;;16.40;11.90;;;12.30;99.90;;;;;;5069171;28;20274;-96
2022/11/04 03:54:16;;;;;;;15.07;12.57;;;12.30;99.90;;;;;;5087172;28;20556;-95
2022/11/04 03:57:29;;;;;;;;;;;;;;;;;;;;;
2022/11/04 04:00:16;;;;;;;18.10;13.40;;;12.40;99.90;;;;;;5096232;28;20195;-95
2022/11/04 04:02:57;;;;;;;15.87;12.30;;;12.40;99.90;;;;;;5073703;28;20180;-96
2022/11/04 04:06:02;;;;;;;21.07;12.67;;;12.40;99.90;;;;;;5067731;28;20174;-96
2022/11/04 04:08:37;;;;;;;16.30;11.90;;;12.40;99.90;;;;;;5056857;28;20187;-93
2022/11/04 04:11:35;;;;;;;17.77;12.63;;;12.40;99.90;;;;;;5067003;28;20202;-94
2022/11/04 04:14:06;;;;;;;14.90;12.50;;;12.50;99.90;;;;;;5069917;28;20536;-94
2022/11/04 04:16:37;;;;;;;16.80;12.97;;;12.40;99.90;;;;;;5073272;28;20171;-94
2022/11/04 04:19:19;;;;;;;17.47;12.33;;;12.50;99.90;;;;;;5075600;28;20183;-94
2022/11/04 04:21:57;;;;;;;18.77;12.40;;;12.50;99.90;;;;;;5060671;28;20230;-96
2022/11/04 04:27:40;;;;;;;13.63;11.33;;;12.40;99.90;;;;;;5088406;28;20170;-96
2022/11/04 04:30:35;;;;;;;14.93;12.17;;;12.50;99.90;;;;;;5133071;22;20221;-94
2022/11/04 04:33:42;;;;;;;13.67;11.73;;;12.50;99.90;;;;;;5082043;28;20156;-95
2022/11/04 04:36:32;;;;;;;13.43;11.63;;;12.40;99.90;;;;;;5079873;28;20203;-95
2022/11/04 04:47:42;;;;;;;15.43;12.00;;;12.50;99.90;;;;;;5106364;28;20193;-96
2022/11/04 04:50:19;;;;;;;15.57;12.30;;;12.50;99.90;;;;;;5069245;28;20222;-96
2022/11/04 04:52:50;;;;;;;16.03;12.47;;;12.50;99.90;;;;;;5064696;28;20274;-95
2022/11/04 04:55:24;;;;;;;16.27;12.97;;;12.50;99.90;;;;;;5069392;28;20207;-96
2022/11/04 04:58:28;;;;;;;17.97;12.77;;;12.40;99.90;;;;;;5057919;28;20207;-95
2022/11/04 05:01:31;;;;;;;17.83;13.03;;;12.50;99.90;;;;;;5075543;28;20186;-95
2022/11/04 05:04:08;;;;;;;19.20;13.70;;;12.50;99.90;;;;;;5097694;22;20241;-96
2022/11/04 05:06:47;;;;;;;16.23;12.97;;;12.40;99.90;;;;;;5069714;28;20185;-96
2022/11/04 05:09:13;;;;;;;16.20;13.07;;;12.40;99.90;;;;;;5064068;28;20292;-96
2022/11/04 05:12:05;;;;;;;16.57;13.03;;;12.50;99.90;;;;;;5080274;28;20249;-95
2022/11/04 05:14:32;;;;;;;15.90;12.87;;;12.50;99.90;;;;;;5081913;28;20166;-96
2022/11/04 05:17:04;;;;;;;18.40;13.73;;;12.50;99.90;;;;;;5095313;28;20166;-96
2022/11/04 05:19:30;;;;;;;15.83;12.77;;;12.50;99.90;;;;;;5081424;28;20179;-96
2022/11/04 05:25:43;;;;;;;17.03;13.07;;;12.50;99.90;;;;;;5115831;22;20321;-95
2022/11/04 05:28:09;;;;;;;15.13;12.43;;;12.60;99.90;;;;;;5085026;28;20194;-96
2022/11/04 05:30:48;;;;;;;19.23;12.93;;;12.60;99.90;;;;;;5078244;28;20206;-94
2022/11/04 05:33:29;;;;;;;17.00;12.87;;;12.60;99.90;;;;;;5516789;22;20277;-95
2022/11/04 05:36:04;;;;;;;17.07;13.23;;;12.70;99.90;;;;;;5058756;28;20320;-95
2022/11/04 05:38:31;;;;;;;19.20;12.30;;;12.70;99.90;;;;;;5063877;28;20173;-94
2022/11/04 05:41:08;;;;;;;12.93;11.40;;;12.70;99.90;;;;;;5064125;28;20175;-94
2022/11/04 05:43:36;;;;;;;15.80;12.43;;;12.60;99.90;;;;;;5080229;28;20239;-95
2022/11/04 05:46:04;;;;;;;16.83;11.90;;;12.70;99.90;;;;;;5066618;28;20174;-95
2022/11/04 05:48:30;;;;;;;14.50;11.67;;;12.70;99.90;;;;;;5081369;28;20162;-95
2022/11/04 05:51:00;;;;;;;15.17;11.77;;;12.90;99.90;;;;;;5074479;28;20215;-96
2022/11/04 05:53:48;;;;;;;17.93;12.07;;;12.80;99.90;;;;;;5068988;28;20191;-95
2022/11/04 05:56:16;;;;;;;14.37;11.33;;;12.80;99.90;;;;;;5048528;28;20280;-95
2022/11/04 05:59:04;;;;;;;15.27;11.67;;;12.80;99.90;;;;;;5031287;28;20189;-95
2022/11/04 06:01:43;;;;;;;17.30;11.73;;;12.70;99.90;;;;;;5039002;22;21386;-95
2022/11/04 06:04:22;;;;;;;16.87;11.90;;;12.80;99.90;;;;;;5112620;28;20200;-95
2022/11/04 06:06:55;;;;;;;14.30;11.37;;;12.90;99.90;;;;;;5072769;28;20191;-94
2022/11/04 06:09:37;;;;;;;14.50;11.00;;;12.90;99.90;;;;;;5071952;28;20180;-95
2022/11/04 06:12:18;;;;;;;13.30;10.93;;;12.90;99.90;;;;;;5073521;28;20202;-95
2022/11/04 06:14:50;;;;;;;12.10;10.73;;;12.90;99.90;;;;;;5076234;28;20195;-95
2022/11/04 06:17:20;;;;;;;14.10;12.20;;;12.80;99.90;;;;;;5159023;22;20225;-94
2022/11/04 06:19:51;;;;;;;14.07;11.53;;;12.70;99.90;;;;;;5070190;28;20193;-96
2022/11/04 06:22:20;;;;;;;13.20;11.53;;;12.70;99.90;;;;;;5086456;28;20178;-96
2022/11/04 06:24:47;;;;;;;17.73;12.50;;;12.80;99.90;;;;;;5083928;28;20201;-95
2022/11/04 06:27:13;;;;;;;13.50;11.53;;;12.80;99.90;;;;;;5079587;28;20191;-95
2022/11/04 06:29:42;;;;;;;13.33;10.77;;;12.80;99.90;;;;;;5080351;28;20635;-96
2022/11/04 06:32:10;;;;;;;14.63;11.67;;;12.90;99.90;;;;;;5079194;28;20186;-94
2022/11/04 06:34:36;;;;;;;14.57;11.43;;;12.90;99.90;;;;;;5090226;28;20161;-94
2022/11/04 06:37:03;;;;;;;13.53;11.33;;;13.00;99.90;;;;;;5095296;28;20210;-95
2022/11/04 06:39:29;;;;;;;13.33;11.33;;;;;;;;;;5090228;28;20182;-96
2022/11/04 06:41:55;;;;;;;12.60;11.07;;;13.10;99.90;;;;;;5092749;28;20208;-96
2022/11/04 06:44:21;;;;;;;12.50;11.20;;;13.10;99.90;;;;;;5093006;28;20265;-96
2022/11/04 06:46:47;;;;;;;14.23;11.23;;;13.00;99.90;;;;;;5091620;28;20186;-95
2022/11/04 06:49:16;;;;;;;13.53;11.20;;;13.10;99.90;;;;;;5094349;28;20179;-96
2022/11/04 06:51:55;;;;;;;12.97;10.57;;;13.10;99.90;;;;;;5090213;28;20217;-96
2022/11/04 06:54:40;;;;;;;14.33;11.17;;;13.20;99.90;;;;;;5075787;28;20606;-95
2022/11/04 06:57:07;;;;;;;13.03;11.53;;;13.20;99.90;;;;;;5074630;28;20271;-96
2022/11/04 06:59:36;;;;;;;13.17;11.17;;;13.10;99.90;;;;;;5098245;28;20159;-95
2022/11/04 07:02:02;;;;;;;13.63;11.67;;;13.00;99.90;;;;;;5100954;28;20171;-96
2022/11/04 07:04:30;;;;;;;17.73;12.27;;;13.00;99.90;;;;;;5099046;28;20174;-96
2022/11/04 07:06:59;;;;;;;13.20;11.03;;;13.10;99.90;;;;;;5073910;28;20205;-94
2022/11/04 07:09:27;;;;;;;13.27;11.13;;;13.10;99.90;;;;;;5090484;28;20208;-95
2022/11/04 07:11:54;;;;;;;16.63;10.77;;;13.10;99.90;;;;;;5094596;28;20221;-94
2022/11/04 07:14:20;;;;;;;15.23;11.40;;;13.00;99.90;;;;;;5093705;28;20178;-95
2022/11/04 07:16:50;;;;;;;14.70;10.93;;;12.90;99.90;;;;;;5093332;28;20222;-96
2022/11/04 07:19:16;;;;;;;11.97;10.67;;;13.00;99.90;;;;;;5101106;28;20179;-96
2022/11/04 07:21:42;;;;;;;13.80;11.13;;;13.10;99.90;;;;;;5103520;28;20181;-95
2022/11/04 07:24:08;;;;;;;16.03;11.87;;;13.20;99.90;;;;;;5091907;28;20212;-94
2022/11/04 07:26:38;;;;;;;14.83;11.13;;;13.10;99.90;;;;;;5068998;28;20178;-96
2022/11/04 07:29:05;;;;;;;14.27;11.53;;;13.10;99.90;;;;;;5084393;28;20629;-95
2022/11/04 07:31:31;;;;;;;14.33;10.57;;;13.20;99.90;;;;;;5087141;28;20572;-94
2022/11/04 07:33:57;;;;;;;15.07;11.47;;;13.20;99.90;;;;;;5087138;28;20190;-96
2022/11/04 07:36:23;;;;;;;14.10;10.77;;;13.30;99.90;;;;;;5082281;28;20183;-94
2022/11/04 07:38:49;;;;;;;14.77;11.03;;;13.30;99.90;;;;;;5080473;28;20174;-94
2022/11/04 07:41:16;;;;;;;11.90;10.63;;;13.20;99.90;;;;;;5082042;28;20185;-95
2022/11/04 07:43:46;;;;;;;13.03;10.73;;;13.10;99.90;;;;;;5085385;28;20265;-94
2022/11/04 07:46:13;;;;;;;12.17;10.87;;;13.10;99.90;;;;;;5085417;28;20177;-93
2022/11/04 07:48:39;;;;;;;15.03;11.83;;;13.00;99.90;;;;;;5083334;28;20539;-96
2022/11/04 07:51:07;;;;;;;13.00;10.67;;;13.00;99.90;;;;;;5081008;28;20668;-96
2022/11/04 07:53:34;;;;;;;13.03;10.70;;;13.00;99.90;;;;;;5081327;28;20175;-94
2022/11/04 07:56:06;;;;;;;11.97;10.67;;;13.00;99.90;;;;;;5081959;28;20209;-95
2022/11/04 07:58:33;;;;;;;11.80;9.90;;;13.00;99.90;;;;;;5093094;28;20175;-96
2022/11/04 08:01:11;;;;;;;14.13;11.60;;;13.10;99.90;;;;;;5101608;28;20238;-96
2022/11/04 08:03:37;;;;;;;13.17;10.33;;;13.10;99.90;;;;;;5077794;28;20621;-95
2022/11/04 08:06:05;;;;;;;13.67;10.63;;;13.10;99.90;;;;;;5082305;28;20595;-95
2022/11/04 08:08:32;;;;;;;12.07;10.17;;;13.10;99.90;;;;;;5106121;28;20198;-95
2022/11/04 08:11:11;;;;;;;12.37;10.70;;;13.00;99.90;;;;;;5086899;28;20205;-95
2022/11/04 08:13:37;;;;;;;11.63;10.03;;;12.90;99.90;;;;;;5086609;28;20257;-96
2022/11/04 08:16:08;;;;;;;11.30;9.93;;;12.90;99.90;;;;;;5085473;28;20171;-96
2022/11/04 08:18:34;;;;;;;12.20;10.17;;;13.00;99.90;;;;;;5088560;28;20223;-96
2022/11/04 08:21:02;;;;;;;13.17;10.97;;;13.00;99.90;;;;;;5090335;28;20175;-95
2022/11/04 08:23:29;;;;;;;11.20;10.00;;;13.00;99.90;;;;;;5090630;28;20241;-96
2022/11/04 08:25:55;;;;;;;13.57;10.93;;;13.00;99.90;;;;;;5088943;28;20280;-96
2022/11/04 08:28:23;;;;;;;12.73;10.40;;;12.90;99.90;;;;;;5089453;28;20174;-96
2022/11/04 08:31:01;;;;;;;12.00;9.47;;;13.00;99.90;;;;;;5088088;28;20206;-95
2022/11/04 08:33:30;;;;;;;14.43;11.47;;;13.00;99.90;;;;;;5094144;28;20174;-95
2022/11/04 08:36:04;;;;;;;12.13;10.67;;;13.00;99.90;;;;;;5089871;28;20181;-95
2022/11/04 08:38:30;;;;;;;12.77;10.10;;;13.00;99.90;;;;;;5092027;28;20181;-95
2022/11/04 08:41:00;;;;;;;12.20;10.57;;;13.00;99.90;;;;;;5097656;28;20178;-95
2022/11/04 08:43:26;;;;;;;13.43;9.67;;;13.00;99.90;;;;;;5100054;28;20186;-96
2022/11/04 08:45:52;;;;;;;12.50;10.37;;;13.00;99.90;;;;;;5116235;28;20202;-96
2022/11/04 08:48:18;;;;;;;12.57;9.97;;;12.90;99.90;;;;;;5099345;28;20187;-96
2022/11/04 08:50:52;;;;;;;12.93;10.33;;;12.90;99.90;;;;;;5093030;28;20211;-96
2022/11/04 08:53:20;;;;;;;11.67;10.47;;;12.90;99.90;;;;;;5093853;28;20258;-95
2022/11/04 08:55:46;;;;;;;10.57;9.20;;;12.90;99.90;;;;;;5092030;28;20596;-96
2022/11/04 08:58:12;;;;;;;12.13;9.90;;;13.10;99.90;;;;;;5077761;28;20176;-96
2022/11/04 09:00:38;;;;;;;14.50;9.63;;;13.10;99.90;;;;;;5095693;28;20175;-96
2022/11/04 09:03:07;;;;;;;10.67;9.57;;;13.10;99.90;;;;;;5096926;28;20151;-96
2022/11/04 09:05:35;;;;;;;12.20;9.47;;;13.10;99.90;;;;;;5097497;28;20222;-96
2022/11/04 09:08:03;;;;;;;11.97;8.90;;;13.10;99.90;;;;;;5101994;28;20174;-96
2022/11/04 09:10:29;;;;;;;12.60;8.80;;;13.10;99.90;;;;;;5080163;28;20217;-96
2022/11/04 09:12:55;;;;;;;10.87;9.47;;;13.20;99.90;;;;;;5088315;28;20177;-95
2022/11/04 09:15:21;;;;;;;10.53;9.30;;;13.20;99.90;;;;;;5090752;28;20178;-94
2022/11/04 09:17:47;;;;;;;12.83;10.17;;;13.30;99.90;;;;;;5084346;28;20275;-95
2022/11/04 09:20:18;;;;;;;16.67;11.63;;;13.30;99.90;;;;;;5068856;28;20576;-96
2022/11/04 09:22:44;;;;;;;11.60;9.43;;;13.30;99.90;;;;;;5066300;28;20514;-94
2022/11/04 09:25:10;;;;;;;12.57;9.10;;;13.20;99.90;;;;;;5082627;28;20167;-94
2022/11/04 09:27:36;;;;;;;12.40;10.13;;;13.10;99.90;;;;;;5078898;28;20185;-95
2022/11/04 09:30:02;;;;;;;15.43;10.50;;;13.10;99.90;;;;;;5080492;28;20684;-94
2022/11/04 09:32:28;;;;;;;18.60;10.77;;;13.10;99.90;;;;;;5081589;28;20259;-94
2022/11/04 09:34:54;;;;;;;12.87;9.27;;;13.10;99.90;;;;;;5085457;28;20179;-96
2022/11/04 09:37:20;;;;;;;10.07;8.60;;;13.10;99.90;;;;;;5068511;28;20574;-95
2022/11/04 09:39:46;;;;;;;11.83;9.53;;;13.00;99.90;;;;;;5086026;28;20183;-94
2022/11/04 09:42:45;;;;;;;11.37;8.30;;;13.10;99.90;;;;;;5088272;28;20242;-95
2022/11/04 09:45:22;;;;;;;11.50;7.93;;;13.20;99.90;;;;;;5100877;28;20170;-96
2022/11/04 09:47:51;;;;;;;10.00;8.77;;;13.20;99.90;;;;;;5100419;28;20196;-92
2022/11/04 09:50:21;;;;;;;10.00;8.70;;;13.10;99.90;;;;;;5094933;28;20210;-93
2022/11/04 09:52:58;;;;;;;8.83;7.93;;;13.20;99.90;;;;;;5088391;28;20170;-93
2022/11/04 09:55:40;;;;;;;10.93;9.13;;;13.20;99.90;;;;;;5085494;28;20182;-93
2022/11/04 09:58:11;;;;;;;13.07;9.13;;;13.30;99.90;;;;;;5078582;28;20590;-93
2022/11/04 10:00:39;;;;;;;10.17;8.80;;;13.30;99.90;;;;;;5080859;28;20178;-94
2022/11/04 10:03:27;;;;;;;10.53;8.70;;;13.20;99.90;;;;;;5087963;28;20174;-95
2022/11/04 10:06:21;;;;;;;12.20;9.70;;;13.20;99.90;;;;;;5085746;28;20286;-95
2022/11/04 10:09:16;;;;;;;12.43;8.93;;;13.10;99.90;;;;;;5089482;28;20179;-96
2022/11/04 10:12:16;;;;;;;13.20;10.63;;;13.00;99.90;;;;;;5078829;28;20221;-95
2022/11/04 10:14:45;;;;;;;18.53;11.67;;;13.00;99.90;;;;;;5088700;28;20171;-96
2022/11/04 10:17:40;;;;;;;11.50;10.03;;;13.10;99.90;;;;;;5076522;28;20228;-96
2022/11/04 10:20:28;;;;;;;13.47;9.60;;;13.00;99.90;;;;;;5063818;28;20184;-92
2022/11/04 10:22:53;;;;;;;12.60;9.87;;;13.10;99.90;;;;;;5079978;28;20172;-96
2022/11/04 10:25:29;;;;;;;13.13;10.90;;;13.10;99.90;;;;;;5077022;28;20254;-93
2022/11/04 10:27:55;;;;;;;13.60;10.30;;;13.10;99.90;;;;;;5062552;28;20168;-95
2022/11/04 10:30:25;;;;;;;16.07;12.13;;;13.00;99.90;;;;;;5061363;28;20599;-93
2022/11/04 10:33:23;;;;;;;12.33;10.77;;;12.90;99.90;;;;;;5061012;28;20183;-94
2022/11/04 10:35:58;;;;;;;14.07;11.63;;;12.70;99.90;;;;;;5064651;28;20695;-95
2022/11/04 10:38:42;;;;;;;15.07;12.13;;;12.70;99.90;;;;;;5066036;28;20186;-94
2022/11/04 10:41:34;;;;;;;16.70;11.90;;;12.60;99.90;;;;;;5065586;28;20179;-95
2022/11/04 10:44:26;;;;;;;12.77;10.93;;;12.50;99.90;;;;;;5066144;28;20174;-94
2022/11/04 10:47:11;;;;;;;13.37;10.57;;;12.50;99.90;;;;;;5067403;28;20216;-95
2022/11/04 10:50:22;;;;;;;14.43;11.33;;;12.50;99.90;;;;;;5067018;28;20191;-96
2022/11/04 10:52:49;;;;;;;13.27;11.00;;;12.60;99.90;;;;;;4999112;28;20304;-96
2022/11/04 10:55:23;;;;;;;15.23;11.70;;;12.60;99.90;;;;;;5003882;28;20178;-95
2022/11/04 10:57:49;;;;;;;13.17;10.90;;;12.60;99.90;;;;;;4999822;28;20216;-95
2022/11/04 11:00:36;;;;;;;14.00;10.90;;;12.60;99.90;;;;;;4980187;28;20177;-94
2022/11/04 11:03:29;;;;;;;12.77;10.63;;;12.60;99.90;;;;;;4986467;28;20571;-95
2022/11/04 11:06:27;;;;;;;15.07;12.10;;;12.50;99.90;;;;;;5002564;28;20219;-93
2022/11/04 11:09:12;;;;;;;13.80;11.20;;;12.50;99.90;;;;;;4913115;29;20256;-95
2022/11/04 11:11:49;;;;;;;12.40;10.37;;;12.60;99.90;;;;;;4930424;29;20216;-94
2022/11/04 11:14:34;;;;;;;15.63;10.00;;;12.60;99.90;;;;;;4917775;29;20212;-94
2022/11/04 11:17:27;;;;;;;12.33;10.03;;;12.60;99.90;;;;;;4918156;29;20247;-96
2022/11/04 11:19:59;;;;;;;12.07;9.53;;;12.60;99.90;;;;;;4945587;29;20180;-95
2022/11/04 11:22:40;;;;;;;13.80;9.80;;;12.70;99.90;;;;;;4951705;29;20184;-96
2022/11/04 11:25:13;;;;;;;11.63;9.33;;;12.70;99.90;;;;;;4934811;29;20184;-95
2022/11/04 11:27:51;;;;;;;11.70;9.73;;;12.60;99.90;;;;;;4957855;29;20156;-94
2022/11/04 11:30:43;;;;;;;13.37;9.57;;;12.70;99.90;;;;;;4974715;28;20202;-94
2022/11/04 11:33:17;;;;;;;12.87;9.87;;;12.70;99.90;;;;;;4987317;28;20183;-95
2022/11/04 11:35:58;;;;;;;9.90;8.90;;;12.80;99.90;;;;;;4968522;28;20186;-93
2022/11/04 11:38:27;;;;;;;11.30;8.50;;;12.90;99.90;;;;;;4970852;28;20183;-94
2022/11/04 11:41:07;;;;;;;9.47;8.33;;;12.80;99.90;;;;;;4970082;28;20179;-94
2022/11/04 11:44:08;;;;;;;9.53;8.33;;;12.70;99.90;;;;;;5060009;22;21420;-96
2022/11/04 11:46:37;;;;;;;11.43;9.53;;;12.60;99.90;;;;;;5055496;28;20195;-94
2022/11/04 11:49:41;;;;;;;12.47;10.10;;;12.60;99.90;;;;;;5049890;28;20188;-95
2022/11/04 11:52:43;;;;;;;14.30;11.70;;;12.60;99.90;;;;;;5050635;28;20237;-95
2022/11/04 11:58:48;;;;;;;11.70;9.13;;;12.80;99.90;;;;;;5010954;28;20176;-94
2022/11/04 12:01:33;;;;;;;10.73;9.23;;;12.80;99.90;;;;;;5058953;28;20171;-94
2022/11/04 12:03:59;;;;;;;11.43;9.30;;;12.90;99.90;;;;;;5062400;28;20225;-94
2022/11/04 12:06:58;;;;;;;12.47;9.23;;;12.80;99.90;;;;;;5061830;28;20164;-95
2022/11/04 12:09:46;;;;;;;15.27;12.47;;;12.80;99.90;;;;;;5059530;28;20180;-96
2022/11/04 12:12:48;;;;;;;13.40;10.00;;;12.80;99.90;;;;;;5052288;28;20187;-95
2022/11/04 12:15:32;;;;;;;10.70;9.47;;;12.80;99.90;;;;;;5048090;23;20227;-94
2022/11/04 12:18:38;;;;;;;11.77;9.50;;;12.90;99.90;;;;;;5062176;28;20180;-95
2022/11/04 12:21:20;;;;;;;10.80;9.00;;;12.80;99.90;;;;;;5063278;28;20175;-95
2022/11/04 12:24:13;;;;;;;9.93;8.93;;;12.70;99.90;;;;;;5063665;28;20635;-94
2022/11/04 12:27:21;;;;;;;12.57;10.17;;;12.80;99.90;;;;;;5064031;28;20170;-94
2022/11/04 12:30:05;;;;;;;12.00;10.30;;;12.60;99.90;;;;;;5028756;28;20635;-93
2022/11/04 12:32:52;;;;;;;10.70;9.27;;;12.70;99.90;;;;;;5028625;28;20183;-93
2022/11/04 12:35:33;;;;;;;12.20;9.47;;;12.80;99.90;;;;;;5027393;28;20204;-93
2022/11/04 12:38:26;;;;;;;11.20;9.73;;;12.80;99.90;;;;;;5024725;28;20176;-95
2022/11/04 12:41:28;;;;;;;10.97;9.23;;;12.70;99.90;;;;;;5037180;28;20185;-95
2022/11/04 12:44:19;;;;;;;14.60;10.03;;;12.70;99.90;;;;;;5024024;28;20203;-94
2022/11/04 12:46:54;;;;;;;10.20;8.60;;;12.80;99.90;;;;;;5039790;28;20196;-94
2022/11/04 12:49:53;;;;;;;11.90;8.97;;;12.70;99.90;;;;;;5022729;28;20179;-95
2022/11/04 12:52:33;;;;;;;12.13;9.67;;;12.70;99.90;;;;;;5025365;28;20189;-95
2022/11/04 12:55:20;;;;;;;11.03;9.70;;;12.70;99.90;;;;;;5024746;28;20185;-94
2022/11/04 12:58:02;;;;;;;13.40;9.40;;;12.80;99.90;;;;;;5025033;28;20176;-95
2022/11/04 13:00:30;;;;;;;11.20;8.97;;;12.80;99.90;;;;;;5028525;28;20190;-95
2022/11/04 13:03:12;;;;;;;10.77;9.50;;;12.80;99.90;;;;;;5065404;28;20203;-96
2022/11/04 13:06:04;;;;;;;12.53;10.13;;;12.80;99.90;;;;;;5061639;28;20187;-95
2022/11/04 13:08:36;;;;;;;11.77;9.87;;;12.90;99.90;;;;;;5048077;28;20202;-95
2022/11/04 13:11:22;;;;;;;12.13;9.33;;;13.00;99.90;;;;;;5068085;28;20279;-94
2022/11/04 13:14:11;;;;;;;10.63;9.27;;;13.10;99.90;;;;;;5077154;28;20152;-96
2022/11/04 13:16:46;;;;;;;12.90;8.93;;;13.10;99.90;;;;;;5053927;28;20299;-94
2022/11/04 13:20:00;;;;;;;12.27;9.43;;;13.10;99.90;;;;;;5069264;28;20183;-96
2022/11/04 13:22:32;;;;;;;11.03;8.53;;;13.20;99.90;;;;;;5069687;28;20168;-94
2022/11/04 13:25:22;;;;;;;9.50;8.50;;;13.20;99.90;;;;;;5068726;28;20171;-95
2022/11/04 13:27:49;;;;;;;11.47;8.60;;;13.30;99.90;;;;;;5063031;28;20179;-94
2022/11/04 13:30:24;;;;;;;11.10;9.43;;;13.20;99.90;;;;;;5063924;28;20207;-94
2022/11/04 13:32:50;;;;;;;9.90;8.90;;;13.20;99.90;;;;;;5067458;28;20186;-93
2022/11/04 13:35:53;;;;;;;10.87;9.07;;;13.20;99.90;;;;;;5062775;28;20251;-95
2022/11/04 13:38:30;;;;;;;9.43;8.43;;;13.30;99.90;;;;;;5075419;28;20179;-95
2022/11/04 13:41:16;;;;;;;11.00;8.73;;;13.30;99.90;;;;;;5064666;28;20258;-95
2022/11/04 13:43:54;;;;;;;8.73;7.83;;;13.30;99.90;;;;;;5071610;28;20239;-95
2022/11/04 13:46:29;;;;;;;10.03;8.10;;;13.30;99.90;;;;;;5075737;28;20187;-94
2022/11/04 13:49:29;;;;;;;11.87;8.70;;;13.40;99.90;;;;;;5073329;28;20178;-95
2022/11/04 13:52:10;;;;;;;11.90;8.47;;;13.30;99.90;;;;;;5063678;28;20203;-95
2022/11/04 13:54:51;;;;;;;10.27;8.83;;;13.30;99.90;;;;;;5065502;28;20183;-94
2022/11/04 13:57:26;;;;;;;12.70;9.07;;;13.30;99.90;;;;;;5059714;28;20168;-95
2022/11/04 14:00:11;;;;;;;8.53;7.57;;;13.10;99.90;;;;;;5059635;28;20177;-95
2022/11/04 14:02:57;;;;;;;4.90;4.40;;;12.90;99.90;;;;;;5063303;28;20254;-94
2022/11/04 14:05:38;;;;;;;3.53;3.23;;;12.60;99.90;;;;;;5063457;28;20174;-95
2022/11/04 14:08:13;;;;;;;2.70;2.50;;;12.50;99.90;;;;;;5062380;28;20168;-96
2022/11/04 14:10:48;;;;;;;2.07;1.97;;;12.40;99.90;;;;;;5062975;28;20744;-95